sensor_id;sensor_type;location;lat;lon;timestamp;P1;durP1;ratioP1;P2;durP2;ratioP2
2646;SDS011;1333;50.958;6.770;2024-03-23T00:53:12;11.53;;;5.50;;
2646;SDS011;1333;50.958;6.770;2024-03-23T00:55:40;6.33;;;4.00;;
2646;SDS011;1333;50.958;6.770;2024-03-23T00:58:05;7.23;;;4.20;;
2646;SDS011;1333;50.958;6.770;2024-03-23T01:00:31;11.37;;;4.30;;
2646;SDS011;1333;50.958;6.770;2024-03-23T01:02:57;5.23;;;3.20;;
2646;SDS011;1333;50.958;6.770;2024-03-23T01:05:22;5.93;;;4.07;;
2646;SDS011;1333;50.958;6.770;2024-03-23T01:07:48;4.70;;;3.90;;
2646;SDS011;1333;50.958;6.770;2024-03-23T01:10:13;8.43;;;4.00;;
2646;SDS011;1333;50.958;6.770;2024-03-23T01:12:39;4.77;;;3.70;;
2646;SDS011;1333;50.958;6.770;2024-03-23T01:15:04;8.93;;;3.13;;
2646;SDS011;1333;50.958;6.770;2024-03-23T01:17:30;3.23;;;2.87;;
2646;SDS011;1333;50.958;6.770;2024-03-23T01:19:55;5.37;;;3.60;;
2646;SDS011;1333;50.958;6.770;2024-03-23T01:22:21;10.63;;;3.00;;
2646;SDS011;1333;50.958;6.770;2024-03-23T01:24:46;2.40;;;2.10;;
2646;SDS011;1333;50.958;6.770;2024-03-23T01:27:12;3.43;;;1.93;;
2646;SDS011;1333;50.958;6.770;2024-03-23T01:29:37;2.80;;;1.73;;
2646;SDS011;1333;50.958;6.770;2024-03-23T01:32:03;2.63;;;2.43;;
2646;SDS011;1333;50.958;6.770;2024-03-23T01:34:29;8.53;;;2.63;;
2646;SDS011;1333;50.958;6.770;2024-03-23T01:36:55;10.70;;;2.93;;
2646;SDS011;1333;50.958;6.770;2024-03-23T01:39:20;5.07;;;3.20;;
2646;SDS011;1333;50.958;6.770;2024-03-23T01:41:46;10.73;;;3.87;;
2646;SDS011;1333;50.958;6.770;2024-03-23T01:44:11;7.13;;;2.70;;
2646;SDS011;1333;50.958;6.770;2024-03-23T01:46:37;5.00;;;3.33;;
2646;SDS011;1333;50.958;6.770;2024-03-23T01:49:04;7.10;;;3.20;;
2646;SDS011;1333;50.958;6.770;2024-03-23T01:51:30;6.90;;;2.10;;
2646;SDS011;1333;50.958;6.770;2024-03-23T01:53:57;8.83;;;3.00;;
2646;SDS011;1333;50.958;6.770;2024-03-23T01:56:25;3.57;;;3.00;;
2646;SDS011;1333;50.958;6.770;2024-03-23T01:58:51;4.17;;;3.07;;
2646;SDS011;1333;50.958;6.770;2024-03-23T02:01:17;8.20;;;2.80;;
2646;SDS011;1333;50.958;6.770;2024-03-23T02:03:42;4.60;;;2.93;;
2646;SDS011;1333;50.958;6.770;2024-03-23T02:06:08;6.73;;;2.20;;
2646;SDS011;1333;50.958;6.770;2024-03-23T02:08:33;2.03;;;1.83;;
2646;SDS011;1333;50.958;6.770;2024-03-23T02:10:59;3.30;;;1.50;;
2646;SDS011;1333;50.958;6.770;2024-03-23T02:13:25;3.40;;;1.50;;
2646;SDS011;1333;50.958;6.770;2024-03-23T02:15:50;4.20;;;1.83;;
2646;SDS011;1333;50.958;6.770;2024-03-23T02:18:16;2.73;;;1.70;;
2646;SDS011;1333;50.958;6.770;2024-03-23T02:20:41;5.60;;;1.33;;
2646;SDS011;1333;50.958;6.770;2024-03-23T02:23:16;1.70;;;1.00;;
2646;SDS011;1333;50.958;6.770;2024-03-23T02:25:45;5.17;;;1.47;;
2646;SDS011;1333;50.958;6.770;2024-03-23T02:28:11;1.43;;;1.00;;
2646;SDS011;1333;50.958;6.770;2024-03-23T02:30:37;4.17;;;1.73;;
2646;SDS011;1333;50.958;6.770;2024-03-23T02:33:03;3.93;;;1.20;;
2646;SDS011;1333;50.958;6.770;2024-03-23T02:35:29;3.30;;;1.20;;
2646;SDS011;1333;50.958;6.770;2024-03-23T02:37:55;3.67;;;1.03;;
2646;SDS011;1333;50.958;6.770;2024-03-23T02:40:22;2.70;;;1.33;;
2646;SDS011;1333;50.958;6.770;2024-03-23T02:42:48;1.27;;;0.80;;
2646;SDS011;1333;50.958;6.770;2024-03-23T02:45:14;9.60;;;1.87;;
2646;SDS011;1333;50.958;6.770;2024-03-23T02:47:39;4.97;;;0.80;;
2646;SDS011;1333;50.958;6.770;2024-03-23T02:50:05;3.53;;;1.20;;
2646;SDS011;1333;50.958;6.770;2024-03-23T02:52:31;4.40;;;1.37;;
2646;SDS011;1333;50.958;6.770;2024-03-23T02:54:57;2.63;;;2.30;;
2646;SDS011;1333;50.958;6.770;2024-03-23T02:57:22;8.27;;;1.30;;
2646;SDS011;1333;50.958;6.770;2024-03-23T02:59:48;2.00;;;1.00;;
2646;SDS011;1333;50.958;6.770;2024-03-23T03:02:14;14.40;;;2.10;;
2646;SDS011;1333;50.958;6.770;2024-03-23T03:04:40;2.40;;;0.97;;
2646;SDS011;1333;50.958;6.770;2024-03-23T03:07:06;4.00;;;0.80;;
2646;SDS011;1333;50.958;6.770;2024-03-23T03:09:31;2.30;;;1.00;;
2646;SDS011;1333;50.958;6.770;2024-03-23T03:11:57;1.60;;;1.00;;
2646;SDS011;1333;50.958;6.770;2024-03-23T03:14:23;1.63;;;1.20;;
2646;SDS011;1333;50.958;6.770;2024-03-23T03:16:49;4.03;;;0.93;;
2646;SDS011;1333;50.958;6.770;2024-03-23T03:19:14;3.90;;;1.40;;
2646;SDS011;1333;50.958;6.770;2024-03-23T03:21:41;1.20;;;1.00;;
2646;SDS011;1333;50.958;6.770;2024-03-23T03:24:07;1.00;;;0.80;;
2646;SDS011;1333;50.958;6.770;2024-03-23T03:26:32;6.47;;;1.53;;
2646;SDS011;1333;50.958;6.770;2024-03-23T03:28:58;1.53;;;0.90;;
2646;SDS011;1333;50.958;6.770;2024-03-23T03:31:24;2.30;;;1.43;;
2646;SDS011;1333;50.958;6.770;2024-03-23T03:33:49;7.60;;;1.30;;
2646;SDS011;1333;50.958;6.770;2024-03-23T03:36:16;1.80;;;1.10;;
2646;SDS011;1333;50.958;6.770;2024-03-23T03:38:41;1.50;;;1.23;;
2646;SDS011;1333;50.958;6.770;2024-03-23T03:41:07;3.20;;;1.40;;
2646;SDS011;1333;50.958;6.770;2024-03-23T03:43:33;2.00;;;1.37;;
2646;SDS011;1333;50.958;6.770;2024-03-23T03:45:59;1.47;;;1.17;;
2646;SDS011;1333;50.958;6.770;2024-03-23T03:48:25;4.17;;;1.47;;
2646;SDS011;1333;50.958;6.770;2024-03-23T03:50:51;8.13;;;1.30;;
2646;SDS011;1333;50.958;6.770;2024-03-23T03:53:17;3.53;;;1.90;;
2646;SDS011;1333;50.958;6.770;2024-03-23T03:55:43;9.47;;;1.60;;
2646;SDS011;1333;50.958;6.770;2024-03-23T03:58:09;4.87;;;2.37;;
2646;SDS011;1333;50.958;6.770;2024-03-23T04:00:34;9.93;;;2.40;;
2646;SDS011;1333;50.958;6.770;2024-03-23T04:03:00;2.17;;;1.27;;
2646;SDS011;1333;50.958;6.770;2024-03-23T04:05:26;3.67;;;1.53;;
2646;SDS011;1333;50.958;6.770;2024-03-23T04:07:52;4.83;;;1.53;;
2646;SDS011;1333;50.958;6.770;2024-03-23T04:10:17;2.53;;;1.40;;
2646;SDS011;1333;50.958;6.770;2024-03-23T04:12:43;9.13;;;1.93;;
2646;SDS011;1333;50.958;6.770;2024-03-23T04:15:10;1.77;;;1.17;;
2646;SDS011;1333;50.958;6.770;2024-03-23T04:17:35;5.50;;;1.43;;
2646;SDS011;1333;50.958;6.770;2024-03-23T04:20:01;9.43;;;1.60;;
2646;SDS011;1333;50.958;6.770;2024-03-23T04:22:29;13.97;;;2.60;;
2646;SDS011;1333;50.958;6.770;2024-03-23T04:24:54;12.50;;;2.50;;
2646;SDS011;1333;50.958;6.770;2024-03-23T04:27:21;6.70;;;1.97;;
2646;SDS011;1333;50.958;6.770;2024-03-23T04:29:48;3.87;;;1.60;;
2646;SDS011;1333;50.958;6.770;2024-03-23T04:32:15;9.23;;;2.17;;
2646;SDS011;1333;50.958;6.770;2024-03-23T04:34:41;10.07;;;2.30;;
2646;SDS011;1333;50.958;6.770;2024-03-23T04:37:07;5.13;;;1.70;;
2646;SDS011;1333;50.958;6.770;2024-03-23T04:39:33;3.07;;;1.57;;
2646;SDS011;1333;50.958;6.770;2024-03-23T04:41:58;8.43;;;2.07;;
2646;SDS011;1333;50.958;6.770;2024-03-23T04:44:24;4.63;;;1.73;;
2646;SDS011;1333;50.958;6.770;2024-03-23T04:46:49;1.93;;;1.30;;
2646;SDS011;1333;50.958;6.770;2024-03-23T04:49:15;3.90;;;2.13;;
2646;SDS011;1333;50.958;6.770;2024-03-23T04:51:40;4.63;;;1.50;;
2646;SDS011;1333;50.958;6.770;2024-03-23T04:54:10;9.23;;;1.67;;
2646;SDS011;1333;50.958;6.770;2024-03-23T04:56:39;4.73;;;1.93;;
2646;SDS011;1333;50.958;6.770;2024-03-23T04:59:05;4.07;;;1.30;;
2646;SDS011;1333;50.958;6.770;2024-03-23T05:01:31;3.40;;;1.47;;
2646;SDS011;1333;50.958;6.770;2024-03-23T05:03:57;4.23;;;1.90;;
2646;SDS011;1333;50.958;6.770;2024-03-23T05:06:23;4.03;;;1.40;;
2646;SDS011;1333;50.958;6.770;2024-03-23T05:08:49;4.70;;;1.73;;
2646;SDS011;1333;50.958;6.770;2024-03-23T05:11:14;17.10;;;8.47;;
2646;SDS011;1333;50.958;6.770;2024-03-23T05:13:40;3.47;;;1.50;;
2646;SDS011;1333;50.958;6.770;2024-03-23T05:16:06;8.20;;;2.03;;
2646;SDS011;1333;50.958;6.770;2024-03-23T05:18:32;4.43;;;1.40;;
2646;SDS011;1333;50.958;6.770;2024-03-23T05:20:57;6.47;;;4.87;;
2646;SDS011;1333;50.958;6.770;2024-03-23T05:23:24;7.47;;;2.17;;
2646;SDS011;1333;50.958;6.770;2024-03-23T05:25:50;13.47;;;2.17;;
2646;SDS011;1333;50.958;6.770;2024-03-23T05:28:16;5.70;;;1.57;;
2646;SDS011;1333;50.958;6.770;2024-03-23T05:30:42;6.10;;;1.43;;
2646;SDS011;1333;50.958;6.770;2024-03-23T05:33:08;5.50;;;1.50;;
2646;SDS011;1333;50.958;6.770;2024-03-23T05:35:34;8.20;;;1.73;;
2646;SDS011;1333;50.958;6.770;2024-03-23T05:37:59;4.20;;;2.07;;
2646;SDS011;1333;50.958;6.770;2024-03-23T05:40:25;9.80;;;1.80;;
2646;SDS011;1333;50.958;6.770;2024-03-23T05:42:51;8.30;;;1.60;;
2646;SDS011;1333;50.958;6.770;2024-03-23T05:45:20;5.63;;;2.80;;
2646;SDS011;1333;50.958;6.770;2024-03-23T05:47:47;6.40;;;2.10;;
2646;SDS011;1333;50.958;6.770;2024-03-23T05:50:13;3.43;;;2.20;;
2646;SDS011;1333;50.958;6.770;2024-03-23T05:52:39;8.50;;;2.20;;
2646;SDS011;1333;50.958;6.770;2024-03-23T05:55:05;7.60;;;2.20;;
2646;SDS011;1333;50.958;6.770;2024-03-23T05:57:31;4.77;;;2.10;;
2646;SDS011;1333;50.958;6.770;2024-03-23T05:59:57;7.53;;;2.20;;
2646;SDS011;1333;50.958;6.770;2024-03-23T06:02:23;6.57;;;2.37;;
2646;SDS011;1333;50.958;6.770;2024-03-23T06:04:49;3.53;;;1.80;;
2646;SDS011;1333;50.958;6.770;2024-03-23T06:07:14;5.47;;;2.87;;
2646;SDS011;1333;50.958;6.770;2024-03-23T06:09:40;6.60;;;2.20;;
2646;SDS011;1333;50.958;6.770;2024-03-23T06:12:06;9.67;;;2.40;;
2646;SDS011;1333;50.958;6.770;2024-03-23T06:14:32;4.77;;;1.83;;
2646;SDS011;1333;50.958;6.770;2024-03-23T06:16:58;2.57;;;1.80;;
2646;SDS011;1333;50.958;6.770;2024-03-23T06:19:24;7.70;;;2.40;;
2646;SDS011;1333;50.958;6.770;2024-03-23T06:21:52;6.50;;;3.00;;
2646;SDS011;1333;50.958;6.770;2024-03-23T06:24:24;13.50;;;3.33;;
2646;SDS011;1333;50.958;6.770;2024-03-23T06:26:49;4.13;;;2.60;;
2646;SDS011;1333;50.958;6.770;2024-03-23T06:29:15;10.13;;;2.40;;
2646;SDS011;1333;50.958;6.770;2024-03-23T06:31:40;11.13;;;2.47;;
2646;SDS011;1333;50.958;6.770;2024-03-23T06:34:06;8.20;;;2.50;;
2646;SDS011;1333;50.958;6.770;2024-03-23T06:36:31;9.70;;;3.10;;
2646;SDS011;1333;50.958;6.770;2024-03-23T06:38:57;5.67;;;1.90;;
2646;SDS011;1333;50.958;6.770;2024-03-23T06:41:23;7.93;;;2.20;;
2646;SDS011;1333;50.958;6.770;2024-03-23T06:43:49;12.80;;;2.80;;
2646;SDS011;1333;50.958;6.770;2024-03-23T06:46:15;5.10;;;2.20;;
2646;SDS011;1333;50.958;6.770;2024-03-23T06:48:40;5.13;;;2.57;;
2646;SDS011;1333;50.958;6.770;2024-03-23T06:51:06;11.33;;;2.17;;
2646;SDS011;1333;50.958;6.770;2024-03-23T06:53:31;10.87;;;2.40;;
2646;SDS011;1333;50.958;6.770;2024-03-23T06:55:57;3.37;;;1.87;;
2646;SDS011;1333;50.958;6.770;2024-03-23T06:58:23;6.90;;;2.90;;
2646;SDS011;1333;50.958;6.770;2024-03-23T07:00:49;7.20;;;2.87;;
2646;SDS011;1333;50.958;6.770;2024-03-23T07:03:16;4.63;;;2.10;;
2646;SDS011;1333;50.958;6.770;2024-03-23T07:05:42;4.47;;;2.60;;
2646;SDS011;1333;50.958;6.770;2024-03-23T07:08:08;5.97;;;2.73;;
2646;SDS011;1333;50.958;6.770;2024-03-23T07:10:33;3.77;;;2.50;;
2646;SDS011;1333;50.958;6.770;2024-03-23T07:12:59;3.03;;;2.20;;
2646;SDS011;1333;50.958;6.770;2024-03-23T07:15:25;6.80;;;2.93;;
2646;SDS011;1333;50.958;6.770;2024-03-23T07:17:50;4.50;;;3.07;;
2646;SDS011;1333;50.958;6.770;2024-03-23T07:20:16;16.53;;;4.10;;
2646;SDS011;1333;50.958;6.770;2024-03-23T07:22:41;7.10;;;2.97;;
2646;SDS011;1333;50.958;6.770;2024-03-23T07:25:07;4.97;;;3.60;;
2646;SDS011;1333;50.958;6.770;2024-03-23T07:27:32;13.13;;;3.63;;
2646;SDS011;1333;50.958;6.770;2024-03-23T07:29:59;5.93;;;3.27;;
2646;SDS011;1333;50.958;6.770;2024-03-23T07:32:25;9.30;;;3.00;;
2646;SDS011;1333;50.958;6.770;2024-03-23T07:34:51;6.50;;;4.17;;
2646;SDS011;1333;50.958;6.770;2024-03-23T07:37:17;14.10;;;4.17;;
2646;SDS011;1333;50.958;6.770;2024-03-23T07:39:42;5.30;;;3.17;;
2646;SDS011;1333;50.958;6.770;2024-03-23T07:42:08;4.40;;;2.90;;
2646;SDS011;1333;50.958;6.770;2024-03-23T07:44:33;9.47;;;2.90;;
2646;SDS011;1333;50.958;6.770;2024-03-23T07:47:02;5.47;;;3.30;;
2646;SDS011;1333;50.958;6.770;2024-03-23T07:49:28;10.70;;;3.10;;
2646;SDS011;1333;50.958;6.770;2024-03-23T07:51:53;5.03;;;3.40;;
2646;SDS011;1333;50.958;6.770;2024-03-23T07:54:19;4.70;;;3.10;;
2646;SDS011;1333;50.958;6.770;2024-03-23T07:56:44;4.97;;;2.70;;
2646;SDS011;1333;50.958;6.770;2024-03-23T07:59:10;6.57;;;2.93;;
2646;SDS011;1333;50.958;6.770;2024-03-23T08:01:36;10.03;;;3.13;;
2646;SDS011;1333;50.958;6.770;2024-03-23T08:04:01;5.90;;;2.97;;
2646;SDS011;1333;50.958;6.770;2024-03-23T08:06:27;2.93;;;2.50;;
2646;SDS011;1333;50.958;6.770;2024-03-23T08:08:54;3.40;;;2.00;;
2646;SDS011;1333;50.958;6.770;2024-03-23T08:11:27;3.17;;;2.00;;
2646;SDS011;1333;50.958;6.770;2024-03-23T08:13:54;6.93;;;2.33;;
2646;SDS011;1333;50.958;6.770;2024-03-23T08:16:20;9.83;;;1.70;;
2646;SDS011;1333;50.958;6.770;2024-03-23T08:18:46;3.50;;;1.63;;
2646;SDS011;1333;50.958;6.770;2024-03-23T08:21:12;3.20;;;2.17;;
2646;SDS011;1333;50.958;6.770;2024-03-23T08:23:38;7.70;;;2.47;;
2646;SDS011;1333;50.958;6.770;2024-03-23T08:26:05;3.93;;;3.07;;
2646;SDS011;1333;50.958;6.770;2024-03-23T08:28:35;4.07;;;2.90;;
2646;SDS011;1333;50.958;6.770;2024-03-23T08:31:02;7.03;;;2.80;;
2646;SDS011;1333;50.958;6.770;2024-03-23T08:33:30;6.00;;;4.07;;
2646;SDS011;1333;50.958;6.770;2024-03-23T08:35:59;3.90;;;3.10;;
2646;SDS011;1333;50.958;6.770;2024-03-23T08:38:27;5.93;;;3.33;;
2646;SDS011;1333;50.958;6.770;2024-03-23T08:41:00;6.20;;;3.87;;
2646;SDS011;1333;50.958;6.770;2024-03-23T08:43:30;4.40;;;2.47;;
2646;SDS011;1333;50.958;6.770;2024-03-23T08:48:30;9.20;;;3.20;;
2646;SDS011;1333;50.958;6.770;2024-03-23T08:51:00;3.73;;;3.43;;
2646;SDS011;1333;50.958;6.770;2024-03-23T08:53:29;5.27;;;3.10;;
2646;SDS011;1333;50.958;6.770;2024-03-23T08:55:58;3.50;;;3.20;;
2646;SDS011;1333;50.958;6.770;2024-03-23T08:58:26;8.10;;;3.33;;
2646;SDS011;1333;50.958;6.770;2024-03-23T09:00:53;7.03;;;2.77;;
2646;SDS011;1333;50.958;6.770;2024-03-23T09:03:21;6.40;;;2.30;;
2646;SDS011;1333;50.958;6.770;2024-03-23T09:05:51;6.43;;;2.80;;
2646;SDS011;1333;50.958;6.770;2024-03-23T09:08:16;4.60;;;3.00;;
2646;SDS011;1333;50.958;6.770;2024-03-23T09:10:42;3.83;;;2.30;;
2646;SDS011;1333;50.958;6.770;2024-03-23T09:13:08;4.40;;;2.33;;
2646;SDS011;1333;50.958;6.770;2024-03-23T09:15:34;4.13;;;2.63;;
2646;SDS011;1333;50.958;6.770;2024-03-23T09:18:04;3.87;;;2.17;;
2646;SDS011;1333;50.958;6.770;2024-03-23T09:20:33;6.27;;;2.30;;
2646;SDS011;1333;50.958;6.770;2024-03-23T09:22:58;5.90;;;2.83;;
2646;SDS011;1333;50.958;6.770;2024-03-23T09:25:24;2.50;;;2.30;;
2646;SDS011;1333;50.958;6.770;2024-03-23T09:27:50;7.20;;;3.40;;
2646;SDS011;1333;50.958;6.770;2024-03-23T09:30:16;5.60;;;1.97;;
2646;SDS011;1333;50.958;6.770;2024-03-23T09:32:45;7.13;;;2.60;;
2646;SDS011;1333;50.958;6.770;2024-03-23T09:35:10;3.30;;;3.00;;
2646;SDS011;1333;50.958;6.770;2024-03-23T09:37:36;6.07;;;2.63;;
2646;SDS011;1333;50.958;6.770;2024-03-23T09:40:06;3.63;;;2.67;;
2646;SDS011;1333;50.958;6.770;2024-03-23T09:42:38;7.87;;;2.87;;
2646;SDS011;1333;50.958;6.770;2024-03-23T09:45:05;3.83;;;2.33;;
2646;SDS011;1333;50.958;6.770;2024-03-23T09:47:34;3.60;;;2.17;;
2646;SDS011;1333;50.958;6.770;2024-03-23T09:50:00;4.83;;;2.03;;
2646;SDS011;1333;50.958;6.770;2024-03-23T09:52:26;2.30;;;2.00;;
2646;SDS011;1333;50.958;6.770;2024-03-23T09:54:52;4.03;;;2.60;;
2646;SDS011;1333;50.958;6.770;2024-03-23T09:57:17;5.70;;;1.80;;
2646;SDS011;1333;50.958;6.770;2024-03-23T09:59:43;11.47;;;2.30;;
2646;SDS011;1333;50.958;6.770;2024-03-23T10:02:08;3.90;;;2.30;;
2646;SDS011;1333;50.958;6.770;2024-03-23T10:04:39;2.80;;;2.43;;
2646;SDS011;1333;50.958;6.770;2024-03-23T10:07:15;5.93;;;2.50;;
2646;SDS011;1333;50.958;6.770;2024-03-23T10:09:44;3.17;;;2.37;;
2646;SDS011;1333;50.958;6.770;2024-03-23T10:12:11;4.20;;;2.40;;
2646;SDS011;1333;50.958;6.770;2024-03-23T10:14:42;3.10;;;2.03;;
2646;SDS011;1333;50.958;6.770;2024-03-23T10:17:11;4.97;;;2.27;;
2646;SDS011;1333;50.958;6.770;2024-03-23T10:19:42;3.40;;;1.97;;
2646;SDS011;1333;50.958;6.770;2024-03-23T10:22:09;4.27;;;1.90;;
2646;SDS011;1333;50.958;6.770;2024-03-23T10:24:35;3.80;;;2.00;;
2646;SDS011;1333;50.958;6.770;2024-03-23T10:27:01;7.97;;;2.20;;
2646;SDS011;1333;50.958;6.770;2024-03-23T10:29:26;5.60;;;1.70;;
2646;SDS011;1333;50.958;6.770;2024-03-23T10:31:53;4.40;;;1.87;;
2646;SDS011;1333;50.958;6.770;2024-03-23T10:34:25;3.13;;;1.80;;
2646;SDS011;1333;50.958;6.770;2024-03-23T10:36:53;4.37;;;1.93;;
2646;SDS011;1333;50.958;6.770;2024-03-23T10:39:20;1.97;;;1.40;;
2646;SDS011;1333;50.958;6.770;2024-03-23T10:41:47;3.70;;;1.60;;
2646;SDS011;1333;50.958;6.770;2024-03-23T10:44:18;3.23;;;1.83;;
2646;SDS011;1333;50.958;6.770;2024-03-23T10:46:45;6.13;;;2.20;;
2646;SDS011;1333;50.958;6.770;2024-03-23T10:49:10;4.20;;;1.53;;
2646;SDS011;1333;50.958;6.770;2024-03-23T10:51:36;2.73;;;1.80;;
2646;SDS011;1333;50.958;6.770;2024-03-23T10:54:04;1.97;;;1.30;;
2646;SDS011;1333;50.958;6.770;2024-03-23T10:56:32;2.23;;;1.90;;
2646;SDS011;1333;50.958;6.770;2024-03-23T10:59:01;3.97;;;2.10;;
2646;SDS011;1333;50.958;6.770;2024-03-23T11:01:30;2.80;;;1.60;;
2646;SDS011;1333;50.958;6.770;2024-03-23T11:03:56;2.90;;;1.40;;
2646;SDS011;1333;50.958;6.770;2024-03-23T11:06:34;2.47;;;1.60;;
2646;SDS011;1333;50.958;6.770;2024-03-23T11:09:35;3.03;;;1.73;;
2646;SDS011;1333;50.958;6.770;2024-03-23T11:12:00;2.17;;;1.60;;
2646;SDS011;1333;50.958;6.770;2024-03-23T11:14:48;1.60;;;1.50;;
2646;SDS011;1333;50.958;6.770;2024-03-23T11:17:22;3.40;;;1.87;;
2646;SDS011;1333;50.958;6.770;2024-03-23T11:20:01;2.77;;;2.23;;
2646;SDS011;1333;50.958;6.770;2024-03-23T11:25:24;2.00;;;1.57;;
2646;SDS011;1333;50.958;6.770;2024-03-23T11:27:50;2.07;;;1.00;;
2646;SDS011;1333;50.958;6.770;2024-03-23T11:32:50;2.37;;;1.10;;
2646;SDS011;1333;50.958;6.770;2024-03-23T11:35:28;1.67;;;1.50;;
2646;SDS011;1333;50.958;6.770;2024-03-23T11:38:02;3.47;;;1.77;;
2646;SDS011;1333;50.958;6.770;2024-03-23T11:40:35;2.67;;;2.20;;
2646;SDS011;1333;50.958;6.770;2024-03-23T11:43:03;1.97;;;1.20;;
2646;SDS011;1333;50.958;6.770;2024-03-23T11:45:36;3.83;;;1.87;;
2646;SDS011;1333;50.958;6.770;2024-03-23T11:48:14;2.33;;;1.30;;
2646;SDS011;1333;50.958;6.770;2024-03-23T11:50:41;1.67;;;1.27;;
2646;SDS011;1333;50.958;6.770;2024-03-23T11:55:43;1.10;;;1.00;;
2646;SDS011;1333;50.958;6.770;2024-03-23T11:58:17;1.43;;;1.17;;
2646;SDS011;1333;50.958;6.770;2024-03-23T12:00:56;1.00;;;0.90;;
2646;SDS011;1333;50.958;6.770;2024-03-23T12:03:26;1.30;;;1.20;;
2646;SDS011;1333;50.958;6.770;2024-03-23T12:05:56;2.07;;;1.17;;
2646;SDS011;1333;50.958;6.770;2024-03-23T12:08:24;6.60;;;1.23;;
2646;SDS011;1333;50.958;6.770;2024-03-23T12:10:53;4.70;;;1.67;;
2646;SDS011;1333;50.958;6.770;2024-03-23T12:13:30;1.43;;;1.33;;
2646;SDS011;1333;50.958;6.770;2024-03-23T12:15:58;1.90;;;1.40;;
2646;SDS011;1333;50.958;6.770;2024-03-23T12:18:34;1.07;;;0.97;;
2646;SDS011;1333;50.958;6.770;2024-03-23T12:20:59;2.07;;;1.30;;
2646;SDS011;1333;50.958;6.770;2024-03-23T12:23:25;1.10;;;0.90;;
2646;SDS011;1333;50.958;6.770;2024-03-23T12:25:50;1.00;;;0.90;;
2646;SDS011;1333;50.958;6.770;2024-03-23T12:28:16;1.50;;;1.30;;
2646;SDS011;1333;50.958;6.770;2024-03-23T12:30:42;1.53;;;1.10;;
2646;SDS011;1333;50.958;6.770;2024-03-23T12:33:07;1.00;;;0.80;;
2646;SDS011;1333;50.958;6.770;2024-03-23T12:35:33;1.43;;;1.10;;
2646;SDS011;1333;50.958;6.770;2024-03-23T12:37:59;1.00;;;0.90;;
2646;SDS011;1333;50.958;6.770;2024-03-23T12:40:24;0.80;;;0.70;;
2646;SDS011;1333;50.958;6.770;2024-03-23T12:42:50;1.40;;;0.90;;
2646;SDS011;1333;50.958;6.770;2024-03-23T12:45:15;3.17;;;0.80;;
2646;SDS011;1333;50.958;6.770;2024-03-23T12:47:41;2.10;;;1.50;;
2646;SDS011;1333;50.958;6.770;2024-03-23T12:50:07;2.60;;;0.87;;
2646;SDS011;1333;50.958;6.770;2024-03-23T12:52:33;2.73;;;1.03;;
2646;SDS011;1333;50.958;6.770;2024-03-23T12:54:58;2.10;;;1.07;;
2646;SDS011;1333;50.958;6.770;2024-03-23T12:57:24;2.60;;;1.33;;
2646;SDS011;1333;50.958;6.770;2024-03-23T12:59:53;1.53;;;1.43;;
2646;SDS011;1333;50.958;6.770;2024-03-23T13:02:19;2.27;;;2.07;;
2646;SDS011;1333;50.958;6.770;2024-03-23T13:04:46;2.43;;;1.20;;
2646;SDS011;1333;50.958;6.770;2024-03-23T13:07:14;1.70;;;1.60;;
2646;SDS011;1333;50.958;6.770;2024-03-23T13:09:39;1.73;;;1.40;;
2646;SDS011;1333;50.958;6.770;2024-03-23T13:12:05;3.20;;;1.20;;
2646;SDS011;1333;50.958;6.770;2024-03-23T13:14:31;3.73;;;3.43;;
2646;SDS011;1333;50.958;6.770;2024-03-23T13:16:57;3.93;;;1.50;;
2646;SDS011;1333;50.958;6.770;2024-03-23T13:19:22;1.57;;;1.37;;
2646;SDS011;1333;50.958;6.770;2024-03-23T13:21:51;3.00;;;1.63;;
2646;SDS011;1333;50.958;6.770;2024-03-23T13:24:21;2.70;;;1.40;;
2646;SDS011;1333;50.958;6.770;2024-03-23T13:26:47;2.23;;;2.00;;
2646;SDS011;1333;50.958;6.770;2024-03-23T13:29:12;4.33;;;1.80;;
2646;SDS011;1333;50.958;6.770;2024-03-23T13:31:38;1.90;;;1.43;;
2646;SDS011;1333;50.958;6.770;2024-03-23T13:34:04;3.03;;;1.97;;
2646;SDS011;1333;50.958;6.770;2024-03-23T13:36:29;3.83;;;1.50;;
2646;SDS011;1333;50.958;6.770;2024-03-23T13:38:55;5.20;;;1.80;;
2646;SDS011;1333;50.958;6.770;2024-03-23T13:41:20;3.73;;;1.50;;
2646;SDS011;1333;50.958;6.770;2024-03-23T13:43:46;2.27;;;1.10;;
2646;SDS011;1333;50.958;6.770;2024-03-23T13:46:11;4.30;;;1.83;;
2646;SDS011;1333;50.958;6.770;2024-03-23T13:48:37;1.20;;;0.93;;
2646;SDS011;1333;50.958;6.770;2024-03-23T13:51:03;1.07;;;0.97;;
2646;SDS011;1333;50.958;6.770;2024-03-23T13:53:29;1.17;;;0.73;;
2646;SDS011;1333;50.958;6.770;2024-03-23T13:55:55;1.40;;;0.77;;
2646;SDS011;1333;50.958;6.770;2024-03-23T13:58:21;1.63;;;1.27;;
2646;SDS011;1333;50.958;6.770;2024-03-23T14:00:48;1.37;;;1.20;;
2646;SDS011;1333;50.958;6.770;2024-03-23T14:03:14;1.80;;;1.07;;
2646;SDS011;1333;50.958;6.770;2024-03-23T14:05:40;3.40;;;1.43;;
2646;SDS011;1333;50.958;6.770;2024-03-23T14:08:06;1.67;;;1.37;;
2646;SDS011;1333;50.958;6.770;2024-03-23T14:10:32;2.60;;;1.20;;
2646;SDS011;1333;50.958;6.770;2024-03-23T14:12:58;1.87;;;1.30;;
2646;SDS011;1333;50.958;6.770;2024-03-23T14:15:25;1.50;;;1.30;;
2646;SDS011;1333;50.958;6.770;2024-03-23T14:17:51;2.07;;;1.17;;
2646;SDS011;1333;50.958;6.770;2024-03-23T14:20:17;1.53;;;1.40;;
2646;SDS011;1333;50.958;6.770;2024-03-23T14:22:42;1.73;;;1.10;;
2646;SDS011;1333;50.958;6.770;2024-03-23T14:25:09;1.80;;;1.20;;
2646;SDS011;1333;50.958;6.770;2024-03-23T14:27:35;2.40;;;1.37;;
2646;SDS011;1333;50.958;6.770;2024-03-23T14:30:04;2.40;;;1.30;;
2646;SDS011;1333;50.958;6.770;2024-03-23T14:32:30;1.77;;;1.13;;
2646;SDS011;1333;50.958;6.770;2024-03-23T14:34:59;1.40;;;1.20;;
2646;SDS011;1333;50.958;6.770;2024-03-23T14:37:27;5.37;;;1.93;;
2646;SDS011;1333;50.958;6.770;2024-03-23T14:39:55;3.00;;;1.20;;
2646;SDS011;1333;50.958;6.770;2024-03-23T14:42:21;1.63;;;0.90;;
2646;SDS011;1333;50.958;6.770;2024-03-23T14:44:47;2.17;;;1.10;;
2646;SDS011;1333;50.958;6.770;2024-03-23T14:47:12;1.20;;;1.10;;
2646;SDS011;1333;50.958;6.770;2024-03-23T14:49:38;1.57;;;1.00;;
2646;SDS011;1333;50.958;6.770;2024-03-23T14:52:03;1.73;;;1.60;;
2646;SDS011;1333;50.958;6.770;2024-03-23T14:54:29;1.53;;;1.40;;
2646;SDS011;1333;50.958;6.770;2024-03-23T14:56:54;0.90;;;0.80;;
2646;SDS011;1333;50.958;6.770;2024-03-23T14:59:23;1.17;;;0.83;;
2646;SDS011;1333;50.958;6.770;2024-03-23T15:01:49;1.40;;;0.90;;
2646;SDS011;1333;50.958;6.770;2024-03-23T15:04:14;5.83;;;1.20;;
2646;SDS011;1333;50.958;6.770;2024-03-23T15:06:40;1.07;;;0.70;;
2646;SDS011;1333;50.958;6.770;2024-03-23T15:09:07;2.67;;;1.37;;
2646;SDS011;1333;50.958;6.770;2024-03-23T15:11:36;2.57;;;1.37;;
2646;SDS011;1333;50.958;6.770;2024-03-23T15:14:01;1.83;;;0.97;;
2646;SDS011;1333;50.958;6.770;2024-03-23T15:16:27;2.50;;;1.30;;
2646;SDS011;1333;50.958;6.770;2024-03-23T15:18:52;1.00;;;0.90;;
2646;SDS011;1333;50.958;6.770;2024-03-23T15:21:18;1.10;;;1.00;;
2646;SDS011;1333;50.958;6.770;2024-03-23T15:23:46;4.00;;;1.00;;
2646;SDS011;1333;50.958;6.770;2024-03-23T15:26:12;1.27;;;0.90;;
2646;SDS011;1333;50.958;6.770;2024-03-23T15:28:38;2.80;;;1.37;;
2646;SDS011;1333;50.958;6.770;2024-03-23T15:31:18;1.70;;;1.43;;
2646;SDS011;1333;50.958;6.770;2024-03-23T15:33:43;1.30;;;1.10;;
2646;SDS011;1333;50.958;6.770;2024-03-23T15:36:09;1.97;;;1.30;;
2646;SDS011;1333;50.958;6.770;2024-03-23T15:38:34;1.47;;;1.37;;
2646;SDS011;1333;50.958;6.770;2024-03-23T15:41:00;3.47;;;1.70;;
2646;SDS011;1333;50.958;6.770;2024-03-23T15:43:26;1.70;;;1.30;;
2646;SDS011;1333;50.958;6.770;2024-03-23T15:45:59;1.37;;;1.07;;
2646;SDS011;1333;50.958;6.770;2024-03-23T15:48:25;2.27;;;1.33;;
2646;SDS011;1333;50.958;6.770;2024-03-23T15:50:59;2.43;;;1.10;;
2646;SDS011;1333;50.958;6.770;2024-03-23T15:53:25;2.20;;;1.47;;
2646;SDS011;1333;50.958;6.770;2024-03-23T15:58:20;2.30;;;2.10;;
2646;SDS011;1333;50.958;6.770;2024-03-23T16:01:20;2.03;;;1.50;;
2646;SDS011;1333;50.958;6.770;2024-03-23T16:03:39;5.43;;;1.50;;
2646;SDS011;1333;50.958;6.770;2024-03-23T16:06:05;1.03;;;0.90;;
2646;SDS011;1333;50.958;6.770;2024-03-23T16:08:34;2.20;;;1.20;;
2646;SDS011;1333;50.958;6.770;2024-03-23T16:11:04;2.03;;;1.00;;
2646;SDS011;1333;50.958;6.770;2024-03-23T16:13:31;5.03;;;1.10;;
2646;SDS011;1333;50.958;6.770;2024-03-23T16:15:57;0.90;;;0.80;;
2646;SDS011;1333;50.958;6.770;2024-03-23T16:18:24;1.33;;;0.93;;